createdAt,value
2018-11-21T00:00:00.808Z,1006.66
2018-11-21T00:01:00.818Z,1006.60
2018-11-21T00:02:00.760Z,1006.63
2018-11-21T00:03:00.738Z,1006.61
2018-11-21T00:04:00.717Z,1006.60
2018-11-21T00:05:00.696Z,1006.67
2018-11-21T00:06:00.676Z,1006.68
2018-11-21T00:07:00.661Z,1006.66
2018-11-21T00:08:00.646Z,1006.66
2018-11-21T00:09:00.607Z,1006.66
2018-11-21T00:10:00.632Z,1006.66
2018-11-21T00:11:00.559Z,1006.76
2018-11-21T00:12:00.538Z,1006.77
2018-11-21T00:13:00.534Z,1006.78
2018-11-21T00:14:00.498Z,1006.72
2018-11-21T00:15:00.472Z,1006.79
2018-11-21T00:16:00.455Z,1006.79
2018-11-21T00:17:00.444Z,1006.82
2018-11-21T00:18:00.403Z,1006.79
2018-11-21T00:19:00.766Z,1006.84
2018-11-21T00:20:00.378Z,1006.83
2018-11-21T00:21:00.336Z,1006.84
2018-11-21T00:22:00.307Z,1006.87
2018-11-21T00:23:00.335Z,1006.86
2018-11-21T00:24:00.269Z,1006.84
2018-11-21T00:25:00.261Z,1006.83
2018-11-21T00:26:00.229Z,1006.85
2018-11-21T00:27:00.201Z,1006.91
2018-11-21T00:28:00.178Z,1006.91
2018-11-21T00:29:00.180Z,1006.93
2018-11-21T00:30:00.153Z,1006.90
2018-11-21T00:31:00.112Z,1006.93
2018-11-21T00:32:00.093Z,1006.92
2018-11-21T00:33:00.067Z,1006.91
2018-11-21T00:34:00.064Z,1006.97
2018-11-21T00:35:00.021Z,1006.93
2018-11-21T00:36:00.018Z,1006.88
2018-11-21T00:36:59.974Z,1006.86
2018-11-21T00:37:59.954Z,1006.88
2018-11-21T00:38:59.931Z,1006.86
2018-11-21T00:39:59.909Z,1006.92
2018-11-21T00:40:59.884Z,1006.91
2018-11-21T00:41:59.931Z,1006.94
2018-11-21T00:42:59.841Z,1006.95
2018-11-21T00:43:59.846Z,1006.98
2018-11-21T00:44:59.804Z,1006.98
2018-11-21T00:45:59.793Z,1007.00
2018-11-21T00:46:59.753Z,1006.97
2018-11-21T00:47:59.749Z,1007.01
2018-11-21T00:48:59.709Z,1007.03
2018-11-21T00:49:59.688Z,1007.06
2018-11-21T00:50:59.670Z,1007.12
2018-11-21T00:51:59.663Z,1007.18
2018-11-21T00:52:59.621Z,1007.18
2018-11-21T00:53:59.608Z,1007.20
2018-11-21T00:54:59.575Z,1007.16
2018-11-21T00:55:59.549Z,1007.17
2018-11-21T00:57:00.143Z,1007.27
2018-11-21T00:57:59.524Z,1007.28
2018-11-21T00:58:59.488Z,1007.29
2018-11-21T00:59:59.463Z,1007.26
2018-11-21T01:00:59.443Z,1007.33
2018-11-21T01:01:59.423Z,1007.32
2018-11-21T01:02:59.415Z,1007.35
2018-11-21T01:03:59.372Z,1007.31
2018-11-21T01:04:59.358Z,1007.31
2018-11-21T01:05:59.346Z,1007.33
2018-11-21T01:06:59.306Z,1007.36
2018-11-21T01:07:59.301Z,1007.33
2018-11-21T01:08:59.279Z,1007.36
2018-11-21T01:09:59.239Z,1007.38
2018-11-21T01:10:59.219Z,1007.42
2018-11-21T01:11:59.214Z,1007.43
2018-11-21T01:12:59.173Z,1007.45
2018-11-21T01:13:59.153Z,1007.46
2018-11-21T01:14:59.125Z,1007.47
2018-11-21T01:15:59.109Z,1007.46
2018-11-21T01:16:59.077Z,1007.44
2018-11-21T01:17:59.078Z,1007.45
2018-11-21T01:18:59.037Z,1007.49
2018-11-21T01:19:59.022Z,1007.45
2018-11-21T01:20:59.017Z,1007.46
2018-11-21T01:21:58.978Z,1007.49
2018-11-21T01:22:58.987Z,1007.51
2018-11-21T01:23:58.939Z,1007.59
2018-11-21T01:24:58.907Z,1007.60
2018-11-21T01:25:58.898Z,1007.62
2018-11-21T01:26:58.858Z,1007.59
2018-11-21T01:27:58.833Z,1007.59
2018-11-21T01:28:58.828Z,1007.58
2018-11-21T01:29:58.792Z,1007.59
2018-11-21T01:30:58.792Z,1007.57
2018-11-21T01:31:58.780Z,1007.63
2018-11-21T01:32:58.724Z,1007.64
2018-11-21T01:33:58.703Z,1007.66
2018-11-21T01:34:58.692Z,1007.64
2018-11-21T01:35:58.654Z,1007.65
2018-11-21T01:36:58.629Z,1007.65
2018-11-21T01:37:58.614Z,1007.65
2018-11-21T01:38:58.591Z,1007.66
2018-11-21T01:39:58.570Z,1007.64
2018-11-21T01:40:58.563Z,1007.63
2018-11-21T01:41:58.524Z,1007.69
2018-11-21T01:42:58.515Z,1007.73
2018-11-21T01:43:58.477Z,1007.70
2018-11-21T01:44:58.457Z,1007.74
2018-11-21T01:45:58.431Z,1007.76
2018-11-21T01:46:58.404Z,1007.80
2018-11-21T01:47:58.409Z,1007.88
2018-11-21T01:48:58.367Z,1007.91
2018-11-21T01:49:58.342Z,1007.92
2018-11-21T01:50:58.322Z,1007.91
2018-11-21T01:51:58.304Z,1007.94
2018-11-21T01:52:58.293Z,1007.93
2018-11-21T01:53:58.250Z,1007.96
2018-11-21T01:54:58.231Z,1007.97
2018-11-21T01:55:58.230Z,1007.99
2018-11-21T01:56:58.183Z,1007.97
2018-11-21T01:57:58.183Z,1008.02
2018-11-21T01:58:58.138Z,1008.06
2018-11-21T01:59:58.117Z,1008.03
2018-11-21T02:00:58.092Z,1008.03
2018-11-21T02:01:58.070Z,1008.02
2018-11-21T02:02:58.060Z,1008.01
2018-11-21T02:03:58.052Z,1008.01
2018-11-21T02:04:58.008Z,1008.01
2018-11-21T02:05:57.985Z,1008.05
2018-11-21T02:06:57.959Z,1008.06
2018-11-21T02:07:57.937Z,1008.08
2018-11-21T02:08:57.927Z,1008.00
2018-11-21T02:09:57.895Z,1008.00
2018-11-21T02:10:57.868Z,1007.98
2018-11-21T02:11:57.852Z,1008.04
2018-11-21T02:12:57.822Z,1008.11
2018-11-21T02:13:57.813Z,1008.06
2018-11-21T02:14:57.791Z,1008.11
2018-11-21T02:15:57.756Z,1008.14
2018-11-21T02:16:57.732Z,1008.12
2018-11-21T02:17:57.704Z,1008.12
2018-11-21T02:18:57.688Z,1008.14
2018-11-21T02:19:57.664Z,1008.17
2018-11-21T02:20:57.658Z,1008.17
2018-11-21T02:21:57.620Z,1008.19
2018-11-21T02:22:57.597Z,1008.20
2018-11-21T02:23:57.575Z,1008.22
2018-11-21T02:24:57.551Z,1008.22
2018-11-21T02:25:57.530Z,1008.23
2018-11-21T02:26:57.524Z,1008.30
2018-11-21T02:27:57.483Z,1008.34
2018-11-21T02:28:57.461Z,1008.33
2018-11-21T02:29:57.440Z,1008.30
2018-11-21T02:30:57.416Z,1008.29
2018-11-21T02:31:57.393Z,1008.30
2018-11-21T02:32:57.384Z,1008.31
2018-11-21T02:33:57.349Z,1008.21
2018-11-21T02:34:57.328Z,1008.26
2018-11-21T02:35:57.303Z,1008.24
2018-11-21T02:36:57.282Z,1008.30
2018-11-21T02:37:57.276Z,1008.32
2018-11-21T02:38:57.242Z,1008.32
2018-11-21T02:39:57.224Z,1008.28
2018-11-21T02:40:57.207Z,1008.23
2018-11-21T02:41:57.187Z,1008.31
2018-11-21T02:42:57.171Z,1008.30
2018-11-21T02:43:57.132Z,1008.30
2018-11-21T02:44:57.102Z,1008.31
2018-11-21T02:45:57.075Z,1008.36
2018-11-21T02:46:57.057Z,1008.34
2018-11-21T02:47:57.040Z,1008.32
2018-11-21T02:48:57.028Z,1008.35
2018-11-21T02:49:56.988Z,1008.34
2018-11-21T02:50:56.965Z,1008.34
2018-11-21T02:51:56.942Z,1008.35
2018-11-21T02:52:56.940Z,1008.33
2018-11-21T02:53:56.914Z,1008.36
2018-11-21T02:54:56.887Z,1008.40
2018-11-21T02:55:56.851Z,1008.40
2018-11-21T02:56:56.836Z,1008.44
2018-11-21T02:57:56.826Z,1008.45
2018-11-21T02:58:56.814Z,1008.52
2018-11-21T02:59:56.764Z,1008.54
2018-11-21T03:00:56.744Z,1008.56
2018-11-21T03:01:56.716Z,1008.56
2018-11-21T03:02:56.689Z,1008.58
2018-11-21T03:03:56.672Z,1008.57
2018-11-21T03:04:56.661Z,1008.57
2018-11-21T03:05:56.624Z,1008.59
2018-11-21T03:06:56.604Z,1008.59
2018-11-21T03:07:56.615Z,1008.63
2018-11-21T03:08:56.556Z,1008.60
2018-11-21T03:09:56.531Z,1008.64
2018-11-21T03:10:56.529Z,1008.63
2018-11-21T03:11:56.494Z,1008.68
2018-11-21T03:12:56.465Z,1008.70
2018-11-21T03:13:56.446Z,1008.75
2018-11-21T03:14:56.424Z,1008.76
2018-11-21T03:15:56.416Z,1008.74
2018-11-21T03:16:56.376Z,1008.76
2018-11-21T03:17:56.357Z,1008.80
2018-11-21T03:18:56.337Z,1008.69
2018-11-21T03:19:56.309Z,1008.69
2018-11-21T03:20:56.307Z,1008.65
2018-11-21T03:21:56.267Z,1008.67
2018-11-21T03:22:56.240Z,1008.72
2018-11-21T03:23:56.226Z,1008.71
2018-11-21T03:24:56.193Z,1008.73
2018-11-21T03:25:56.195Z,1008.76
2018-11-21T03:26:56.148Z,1008.79
2018-11-21T03:27:56.127Z,1008.76
2018-11-21T03:28:56.108Z,1008.83
2018-11-21T03:29:56.082Z,1008.83
2018-11-21T03:30:56.072Z,1008.87
2018-11-21T03:31:56.055Z,1008.86
2018-11-21T03:32:56.018Z,1008.88
2018-11-21T03:33:57.828Z,1008.90
2018-11-21T03:34:55.973Z,1008.95
2018-11-21T03:35:55.956Z,1008.95
2018-11-21T03:36:55.949Z,1008.97
2018-11-21T03:37:55.911Z,1008.98
2018-11-21T03:38:55.876Z,1009.03
2018-11-21T03:39:55.855Z,1009.04
2018-11-21T03:40:55.836Z,1009.07
2018-11-21T03:41:55.816Z,1009.11
2018-11-21T03:42:55.807Z,1009.12
2018-11-21T03:43:55.764Z,1009.14
2018-11-21T03:44:55.756Z,1009.15
2018-11-21T03:45:55.723Z,1009.17
2018-11-21T03:46:55.700Z,1009.05
2018-11-21T03:47:55.692Z,1009.06
2018-11-21T03:48:55.653Z,1009.04
2018-11-21T03:49:55.636Z,1009.04
2018-11-21T03:50:55.622Z,1009.06
2018-11-21T03:51:55.588Z,1009.11
2018-11-21T03:52:55.578Z,1009.13
2018-11-21T03:53:55.540Z,1009.08
2018-11-21T03:54:55.518Z,1009.12
2018-11-21T03:55:55.508Z,1009.11
2018-11-21T03:56:55.473Z,1009.08
2018-11-21T03:57:55.451Z,1009.17
2018-11-21T03:58:55.443Z,1009.15
2018-11-21T03:59:55.403Z,1009.16
2018-11-21T04:00:55.379Z,1009.13
2018-11-21T04:01:55.363Z,1009.06
2018-11-21T04:02:55.334Z,1009.06
2018-11-21T04:03:55.329Z,1009.11
2018-11-21T04:04:55.295Z,1009.19
2018-11-21T04:05:55.266Z,1009.21
2018-11-21T04:06:55.358Z,1009.26
2018-11-21T04:07:55.221Z,1009.30
2018-11-21T04:08:55.197Z,1009.29
2018-11-21T04:09:55.203Z,1009.27
2018-11-21T04:10:55.151Z,1009.25
2018-11-21T04:11:55.129Z,1009.20
2018-11-21T04:12:55.111Z,1009.20
2018-11-21T04:13:55.087Z,1009.21
2018-11-21T04:14:55.084Z,1009.25
2018-11-21T04:15:55.625Z,1009.31
2018-11-21T04:16:55.020Z,1009.39
2018-11-21T04:17:54.996Z,1009.49
2018-11-21T04:18:54.975Z,1009.56
2018-11-21T04:19:54.955Z,1009.57
2018-11-21T04:20:54.950Z,1009.62
2018-11-21T04:21:54.907Z,1009.70
2018-11-21T04:22:54.886Z,1009.71
2018-11-21T04:23:54.863Z,1009.74
2018-11-21T04:24:54.837Z,1009.69
2018-11-21T04:25:54.843Z,1009.68
2018-11-21T04:26:54.809Z,1009.70
2018-11-21T04:27:54.814Z,1009.75
2018-11-21T04:28:54.748Z,1009.69
2018-11-21T04:29:54.771Z,1009.65
2018-11-21T04:30:54.697Z,1009.64
2018-11-21T04:31:54.696Z,1009.66
2018-11-21T04:32:54.659Z,1009.62
2018-11-21T04:33:54.637Z,1009.65
2018-11-21T04:34:54.616Z,1009.63
2018-11-21T04:35:54.591Z,1009.66
2018-11-21T04:36:54.567Z,1009.70
2018-11-21T04:37:54.563Z,1009.68
2018-11-21T04:38:54.523Z,1009.70
2018-11-21T04:39:54.502Z,1009.68
2018-11-21T04:40:54.475Z,1009.64
2018-11-21T04:41:54.457Z,1009.64
2018-11-21T04:42:54.431Z,1009.67
2018-11-21T04:43:54.423Z,1009.69
2018-11-21T04:44:54.385Z,1009.70
2018-11-21T04:45:54.360Z,1009.75
2018-11-21T04:46:54.339Z,1009.74
2018-11-21T04:47:54.317Z,1009.73
2018-11-21T04:48:54.318Z,1009.80
2018-11-21T04:49:54.273Z,1009.81
2018-11-21T04:50:54.249Z,1009.87
2018-11-21T04:51:54.222Z,1009.81
2018-11-21T04:52:54.219Z,1009.85
2018-11-21T04:53:54.197Z,1009.82
2018-11-21T04:54:54.157Z,1009.82
2018-11-21T04:55:54.141Z,1009.77
2018-11-21T04:56:54.110Z,1009.77
2018-11-21T04:57:54.101Z,1009.77
2018-11-21T04:58:54.067Z,1009.81
2018-11-21T04:59:54.056Z,1009.79
2018-11-21T05:00:54.022Z,1009.82
2018-11-21T05:01:54.001Z,1009.90
2018-11-21T05:02:53.972Z,1009.94
2018-11-21T05:03:53.969Z,1009.99
2018-11-21T05:04:53.948Z,1010.05
2018-11-21T05:05:53.905Z,1010.10
2018-11-21T05:06:53.887Z,1010.11
2018-11-21T05:07:53.860Z,1010.12
2018-11-21T05:08:53.842Z,1010.05
2018-11-21T05:09:53.817Z,1010.08
2018-11-21T05:10:53.807Z,1010.12
2018-11-21T05:11:53.788Z,1010.06
2018-11-21T05:12:53.771Z,1010.09
2018-11-21T05:13:53.732Z,1010.11
2018-11-21T05:14:53.697Z,1010.13
2018-11-21T05:15:53.698Z,1010.18
2018-11-21T05:16:53.657Z,1010.21
2018-11-21T05:17:53.631Z,1010.15
2018-11-21T05:18:53.610Z,1010.16
2018-11-21T05:19:53.587Z,1010.18
2018-11-21T05:20:53.562Z,1010.18
2018-11-21T05:21:53.559Z,1010.15
2018-11-21T05:22:53.526Z,1010.18
2018-11-21T05:23:53.498Z,1010.18
2018-11-21T05:24:53.475Z,1010.22
2018-11-21T05:25:53.449Z,1010.27
2018-11-21T05:26:53.443Z,1010.26
2018-11-21T05:27:53.422Z,1010.24
2018-11-21T05:28:53.383Z,1010.28
2018-11-21T05:29:53.356Z,1010.33
2018-11-21T05:30:53.344Z,1010.30
2018-11-21T05:31:53.313Z,1010.24
2018-11-21T05:32:53.304Z,1010.20
2018-11-21T05:33:53.265Z,1010.21
2018-11-21T05:34:53.243Z,1010.14
2018-11-21T05:35:53.221Z,1010.13
2018-11-21T05:36:53.200Z,1010.11
2018-11-21T05:37:53.288Z,1010.10
2018-11-21T05:38:53.168Z,1010.04
2018-11-21T05:39:53.124Z,1010.05
2018-11-21T05:40:53.097Z,1010.04
2018-11-21T05:41:53.079Z,1010.04
2018-11-21T05:42:53.051Z,1010.05
2018-11-21T05:43:53.048Z,1010.09
2018-11-21T05:44:53.013Z,1010.20
2018-11-21T05:45:52.987Z,1010.18
2018-11-21T05:46:53.786Z,1010.22
2018-11-21T05:47:52.938Z,1010.27
2018-11-21T05:48:52.929Z,1010.32
2018-11-21T05:49:52.887Z,1010.38
2018-11-21T05:50:52.879Z,1010.36
2018-11-21T05:51:52.838Z,1010.36
2018-11-21T05:52:52.839Z,1010.39
2018-11-21T05:53:52.815Z,1010.38
2018-11-21T05:54:52.785Z,1010.37
2018-11-21T05:55:52.748Z,1010.41
2018-11-21T05:56:52.728Z,1010.35
2018-11-21T05:57:52.707Z,1010.39
2018-11-21T05:58:52.681Z,1010.41
2018-11-21T05:59:52.671Z,1010.42
2018-11-21T06:00:52.632Z,1010.44
2018-11-21T06:01:52.609Z,1010.43
2018-11-21T06:02:52.588Z,1010.53
2018-11-21T06:03:52.567Z,1010.57
2018-11-21T06:04:52.586Z,1010.57
2018-11-21T06:05:52.520Z,1010.61
2018-11-21T06:06:52.498Z,1010.60
2018-11-21T06:07:52.470Z,1010.63
2018-11-21T06:08:52.448Z,1010.58
2018-11-21T06:09:52.423Z,1010.64
2018-11-21T06:10:52.416Z,1010.59
2018-11-21T06:11:52.373Z,1010.65
2018-11-21T06:12:52.356Z,1010.68
2018-11-21T06:13:52.332Z,1010.64
2018-11-21T06:14:52.311Z,1010.64
2018-11-21T06:15:52.285Z,1010.65
2018-11-21T06:16:52.270Z,1010.65
2018-11-21T06:17:52.244Z,1010.69
2018-11-21T06:18:52.213Z,1010.72
2018-11-21T06:19:52.184Z,1010.74
2018-11-21T06:20:52.177Z,1010.77
2018-11-21T06:21:52.152Z,1010.75
2018-11-21T06:22:52.144Z,1010.71
2018-11-21T06:23:52.091Z,1010.66
2018-11-21T06:24:52.075Z,1010.66
2018-11-21T06:25:52.062Z,1010.64
2018-11-21T06:26:52.025Z,1010.62
2018-11-21T06:27:52.016Z,1010.66
2018-11-21T06:28:51.972Z,1010.64
2018-11-21T06:29:51.950Z,1010.63
2018-11-21T06:30:51.937Z,1010.69
2018-11-21T06:31:51.915Z,1010.68
2018-11-21T06:32:51.891Z,1010.68
2018-11-21T06:33:51.852Z,1010.67
2018-11-21T06:34:51.833Z,1010.74
2018-11-21T06:35:51.808Z,1010.75
2018-11-21T06:36:51.802Z,1010.73
2018-11-21T06:37:51.760Z,1010.71
2018-11-21T06:38:51.734Z,1010.75
2018-11-21T06:39:51.712Z,1010.80
2018-11-21T06:40:51.702Z,1010.80
2018-11-21T06:41:51.678Z,1010.84
2018-11-21T06:42:51.660Z,1010.87
2018-11-21T06:43:51.628Z,1010.89
2018-11-21T06:44:51.605Z,1010.94
2018-11-21T06:45:51.571Z,1011.00
2018-11-21T06:46:51.549Z,1011.01
2018-11-21T06:47:51.523Z,1011.02
2018-11-21T06:48:51.521Z,1011.01
2018-11-21T06:49:51.475Z,1010.96
2018-11-21T06:50:51.458Z,1011.00
2018-11-21T06:51:51.465Z,1010.98
2018-11-21T06:52:51.402Z,1011.02
2018-11-21T06:53:51.399Z,1011.04
2018-11-21T06:54:51.373Z,1011.01
2018-11-21T06:55:51.337Z,1011.02
2018-11-21T06:56:51.312Z,1011.02
2018-11-21T06:57:51.293Z,1011.00
2018-11-21T06:58:55.086Z,1011.03
2018-11-21T06:59:51.258Z,1011.00
2018-11-21T07:00:51.223Z,1011.00
2018-11-21T07:01:51.199Z,1010.96
2018-11-21T07:02:51.178Z,1010.95
2018-11-21T07:03:51.146Z,1011.00
2018-11-21T07:04:51.139Z,1011.01
2018-11-21T07:05:51.099Z,1011.03
2018-11-21T07:06:51.077Z,1011.09
2018-11-21T07:07:51.052Z,1011.12
2018-11-21T07:08:51.026Z,1011.14
2018-11-21T07:09:51.023Z,1011.17
2018-11-21T07:10:50.982Z,1011.22
2018-11-21T07:11:50.976Z,1011.25
2018-11-21T07:12:50.935Z,1011.30
2018-11-21T07:13:50.905Z,1011.32
2018-11-21T07:14:50.886Z,1011.30
2018-11-21T07:15:50.887Z,1011.31
2018-11-21T07:16:50.858Z,1011.34
2018-11-21T07:17:50.816Z,1011.34
2018-11-21T07:18:50.788Z,1011.33
2018-11-21T07:19:50.766Z,1011.35
2018-11-21T07:20:50.764Z,1011.40
2018-11-21T07:21:50.738Z,1011.38
2018-11-21T07:22:50.705Z,1011.37
2018-11-21T07:23:50.724Z,1011.42
2018-11-21T07:24:50.652Z,1011.41
2018-11-21T07:25:50.623Z,1011.40
2018-11-21T07:26:50.618Z,1011.42
2018-11-21T07:27:50.583Z,1011.48
2018-11-21T07:28:50.559Z,1011.50
2018-11-21T07:29:50.563Z,1011.51
2018-11-21T07:30:50.508Z,1011.49
2018-11-21T07:31:50.494Z,1011.57
2018-11-21T07:32:50.474Z,1011.55
2018-11-21T07:33:50.443Z,1011.57
2018-11-21T07:34:50.416Z,1011.59
2018-11-21T07:35:50.408Z,1011.56
2018-11-21T07:36:50.380Z,1011.59
2018-11-21T07:37:50.346Z,1011.58
2018-11-21T07:38:50.317Z,1011.59
2018-11-21T07:39:50.298Z,1011.58
2018-11-21T07:40:50.306Z,1011.61
2018-11-21T07:41:50.257Z,1011.67
2018-11-21T07:42:50.225Z,1011.66
2018-11-21T07:43:50.204Z,1011.68
2018-11-21T07:44:50.235Z,1011.70
2018-11-21T07:45:50.155Z,1011.72
2018-11-21T07:46:50.149Z,1011.72
2018-11-21T07:47:50.123Z,1011.75
2018-11-21T07:48:50.087Z,1011.72
2018-11-21T07:49:50.063Z,1011.75
2018-11-21T07:50:50.041Z,1011.71
2018-11-21T07:51:50.034Z,1011.71
2018-11-21T07:52:49.991Z,1011.70
2018-11-21T07:53:49.977Z,1011.73
2018-11-21T07:54:49.968Z,1011.72
2018-11-21T07:55:49.917Z,1011.75
2018-11-21T07:56:49.899Z,1011.76
2018-11-21T07:57:49.879Z,1011.76
2018-11-21T07:58:49.854Z,1011.80
2018-11-21T07:59:54.446Z,1011.85
2018-11-21T08:00:49.827Z,1011.89
2018-11-21T08:01:49.781Z,1011.89
2018-11-21T08:02:49.753Z,1011.93
2018-11-21T08:03:49.747Z,1011.98
2018-11-21T08:04:49.707Z,1011.94
2018-11-21T08:05:49.692Z,1012.00
2018-11-21T08:06:49.658Z,1012.03
2018-11-21T08:07:49.662Z,1012.03
2018-11-21T08:08:49.620Z,1012.03
2018-11-21T08:09:49.590Z,1012.03
2018-11-21T08:10:49.596Z,1012.06
2018-11-21T08:11:49.563Z,1012.12
2018-11-21T08:12:49.527Z,1012.14
2018-11-21T08:13:49.496Z,1012.18
2018-11-21T08:14:49.501Z,1012.20
2018-11-21T08:15:49.452Z,1012.20
2018-11-21T08:16:49.428Z,1012.17
2018-11-21T08:17:49.407Z,1012.12
2018-11-21T08:18:49.377Z,1012.11
2018-11-21T08:19:49.380Z,1012.12
2018-11-21T08:20:49.339Z,1012.14
2018-11-21T08:21:49.313Z,1012.18
2018-11-21T08:22:49.288Z,1012.17
2018-11-21T08:23:55.382Z,1012.18
2018-11-21T08:24:49.256Z,1012.16
2018-11-21T08:25:49.237Z,1012.20
2018-11-21T08:26:49.193Z,1012.26
2018-11-21T08:27:49.176Z,1012.32
2018-11-21T08:28:49.161Z,1012.33
2018-11-21T08:29:49.125Z,1012.35
2018-11-21T08:30:49.096Z,1012.32
2018-11-21T08:31:49.103Z,1012.34
2018-11-21T08:32:49.054Z,1012.30
2018-11-21T08:33:49.033Z,1012.28
2018-11-21T08:34:49.009Z,1012.31
2018-11-21T08:35:48.984Z,1012.29
2018-11-21T08:36:48.983Z,1012.29
2018-11-21T08:37:48.938Z,1012.32
2018-11-21T08:38:48.922Z,1012.28
2018-11-21T08:39:48.888Z,1012.27
2018-11-21T08:40:48.887Z,1012.32
2018-11-21T08:41:48.847Z,1012.33
2018-11-21T08:42:48.842Z,1012.32
2018-11-21T08:43:48.799Z,1012.31
2018-11-21T08:44:48.776Z,1012.31
2018-11-21T08:45:48.752Z,1012.33
2018-11-21T08:46:48.756Z,1012.33
2018-11-21T08:47:48.706Z,1012.30
2018-11-21T08:48:48.684Z,1012.33
2018-11-21T08:49:48.656Z,1012.38
2018-11-21T08:50:48.642Z,1012.36
2018-11-21T08:51:48.629Z,1012.40
2018-11-21T08:52:48.597Z,1012.45
2018-11-21T08:53:48.568Z,1012.48
2018-11-21T08:54:48.546Z,1012.47
2018-11-21T08:55:48.522Z,1012.46
2018-11-21T08:56:48.554Z,1012.46
2018-11-21T08:57:48.483Z,1012.48
2018-11-21T08:58:48.451Z,1012.55
2018-11-21T08:59:48.428Z,1012.57
2018-11-21T09:00:48.406Z,1012.58
2018-11-21T09:01:48.380Z,1012.57
2018-11-21T09:02:48.379Z,1012.60
2018-11-21T09:03:48.346Z,1012.60
2018-11-21T09:04:48.332Z,1012.66
2018-11-21T09:05:48.291Z,1012.68
2018-11-21T09:06:48.264Z,1012.73
2018-11-21T09:07:48.261Z,1012.74
2018-11-21T09:08:48.221Z,1012.75
2018-11-21T09:09:48.196Z,1012.75
2018-11-21T09:10:48.191Z,1012.71
2018-11-21T09:11:48.154Z,1012.71
2018-11-21T09:12:48.129Z,1012.73
2018-11-21T09:13:48.934Z,1012.76
2018-11-21T09:14:48.083Z,1012.80
2018-11-21T09:15:48.063Z,1012.81
2018-11-21T09:16:48.050Z,1012.82
2018-11-21T09:17:48.017Z,1012.81
2018-11-21T09:18:48.003Z,1012.83
2018-11-21T09:19:47.971Z,1012.83
2018-11-21T09:20:47.948Z,1012.81
2018-11-21T09:21:47.932Z,1012.81
2018-11-21T09:22:47.904Z,1012.76
2018-11-21T09:23:47.879Z,1012.82
2018-11-21T09:24:47.872Z,1012.84
2018-11-21T09:25:47.832Z,1012.88
2018-11-21T09:26:47.825Z,1012.89
2018-11-21T09:27:47.785Z,1012.91
2018-11-21T09:28:47.762Z,1012.91
2018-11-21T09:29:47.748Z,1012.90
2018-11-21T09:30:47.719Z,1012.97
2018-11-21T09:31:47.718Z,1012.98
2018-11-21T09:32:47.675Z,1012.94
2018-11-21T09:33:47.679Z,1012.99
2018-11-21T09:34:47.637Z,1012.94
2018-11-21T09:35:47.607Z,1012.96
2018-11-21T09:36:47.583Z,1012.99
2018-11-21T09:37:47.586Z,1012.95
2018-11-21T09:38:47.547Z,1012.94
2018-11-21T09:39:47.515Z,1012.93
2018-11-21T09:40:47.499Z,1012.96
2018-11-21T09:41:47.476Z,1013.00
2018-11-21T09:42:47.457Z,1012.99
2018-11-21T09:43:47.452Z,1013.01
2018-11-21T09:44:47.405Z,1013.03
2018-11-21T09:45:47.383Z,1013.02
2018-11-21T09:46:47.362Z,1013.05
2018-11-21T09:47:47.342Z,1013.08
2018-11-21T09:48:47.321Z,1013.10
2018-11-21T09:49:47.317Z,1013.10
2018-11-21T09:50:47.290Z,1013.11
2018-11-21T09:51:47.251Z,1013.17
2018-11-21T09:52:50.304Z,1013.15
2018-11-21T09:53:47.211Z,1013.15
2018-11-21T09:54:47.193Z,1013.22
2018-11-21T09:55:47.837Z,1013.27
2018-11-21T09:56:47.157Z,1013.26
2018-11-21T09:57:47.118Z,1013.26
2018-11-21T09:58:47.093Z,1013.30
2018-11-21T09:59:48.080Z,1013.33
2018-11-21T10:00:47.050Z,1013.39
2018-11-21T10:01:47.043Z,1013.39
2018-11-21T10:02:47.008Z,1013.35
2018-11-21T10:03:46.980Z,1013.35
2018-11-21T10:04:46.962Z,1013.35
2018-11-21T10:05:47.562Z,1013.38
2018-11-21T10:06:46.930Z,1013.42
2018-11-21T10:07:46.894Z,1013.42
2018-11-21T10:08:46.872Z,1013.38
2018-11-21T10:09:46.851Z,1013.39
2018-11-21T10:10:46.833Z,1013.29
2018-11-21T10:11:46.816Z,1013.33
2018-11-21T10:12:46.784Z,1013.38
2018-11-21T10:13:46.756Z,1013.40
2018-11-21T10:14:46.756Z,1013.43
2018-11-21T10:15:46.719Z,1013.41
2018-11-21T10:16:46.687Z,1013.38
2018-11-21T10:17:46.673Z,1013.37
2018-11-21T10:18:46.647Z,1013.33
2018-11-21T10:19:46.660Z,1013.31
2018-11-21T10:20:46.609Z,1013.25
2018-11-21T10:21:46.587Z,1013.19
2018-11-21T10:22:46.580Z,1013.13
2018-11-21T10:23:46.540Z,1013.16
2018-11-21T10:24:46.515Z,1013.21
2018-11-21T10:25:46.496Z,1013.27
2018-11-21T10:26:46.489Z,1013.26
2018-11-21T10:27:46.464Z,1013.29
2018-11-21T10:28:46.425Z,1013.28
2018-11-21T10:29:46.418Z,1013.27
2018-11-21T10:30:46.382Z,1013.28
2018-11-21T10:31:46.363Z,1013.27
2018-11-21T10:32:46.344Z,1013.23
2018-11-21T10:33:46.319Z,1013.25
2018-11-21T10:34:46.313Z,1013.22
2018-11-21T10:35:46.286Z,1013.20
2018-11-21T10:36:46.252Z,1013.20
2018-11-21T10:37:46.228Z,1013.18
2018-11-21T10:38:46.207Z,1013.11
2018-11-21T10:39:46.202Z,1013.06
2018-11-21T10:40:46.163Z,1013.05
2018-11-21T10:41:46.144Z,1013.12
2018-11-21T10:42:46.153Z,1013.17
2018-11-21T10:43:46.111Z,1013.18
2018-11-21T10:44:46.078Z,1013.15
2018-11-21T10:45:46.058Z,1013.15
2018-11-21T10:46:46.029Z,1013.19
2018-11-21T10:47:46.010Z,1013.19
2018-11-21T10:48:46.013Z,1013.18
2018-11-21T10:49:45.971Z,1013.24
2018-11-21T10:50:45.943Z,1013.20
2018-11-21T10:51:45.922Z,1013.22
2018-11-21T10:52:45.900Z,1013.23
2018-11-21T10:53:45.889Z,1013.24
2018-11-21T10:54:45.878Z,1013.31
2018-11-21T10:55:45.852Z,1013.32
2018-11-21T10:56:45.812Z,1013.31
2018-11-21T10:57:45.794Z,1013.31
2018-11-21T10:58:45.770Z,1013.33
2018-11-21T10:59:45.748Z,1013.33
2018-11-21T11:00:45.748Z,1013.33
2018-11-21T11:01:45.718Z,1013.33
2018-11-21T11:02:45.684Z,1013.37
2018-11-21T11:03:45.663Z,1013.34
2018-11-21T11:04:45.646Z,1013.36
2018-11-21T11:05:45.646Z,1013.39
2018-11-21T11:06:45.600Z,1013.42
2018-11-21T11:07:45.594Z,1013.45
2018-11-21T11:08:45.559Z,1013.45
2018-11-21T11:09:45.548Z,1013.49
2018-11-21T11:10:45.530Z,1013.54
2018-11-21T11:11:45.505Z,1013.60
2018-11-21T11:12:45.487Z,1013.65
2018-11-21T11:13:45.454Z,1013.71
2018-11-21T11:14:45.438Z,1013.74
2018-11-21T11:15:45.411Z,1013.69
2018-11-21T11:16:45.416Z,1013.69
2018-11-21T11:17:45.385Z,1013.65
2018-11-21T11:18:45.345Z,1013.61
2018-11-21T11:19:45.326Z,1013.64
2018-11-21T11:20:45.301Z,1013.63
2018-11-21T11:21:45.292Z,1013.69
2018-11-21T11:22:45.273Z,1013.73
2018-11-21T11:23:45.273Z,1013.70
2018-11-21T11:24:45.224Z,1013.64
2018-11-21T11:25:45.204Z,1013.64
2018-11-21T11:26:45.183Z,1013.62
2018-11-21T11:27:45.163Z,1013.60
2018-11-21T11:28:45.164Z,1013.62
2018-11-21T11:29:45.119Z,1013.61
2018-11-21T11:30:45.100Z,1013.65
2018-11-21T11:31:45.080Z,1013.63
2018-11-21T11:32:45.063Z,1013.64
2018-11-21T11:33:45.059Z,1013.65
2018-11-21T11:34:45.020Z,1013.61
2018-11-21T11:35:45.007Z,1013.60
2018-11-21T11:36:44.980Z,1013.60
2018-11-21T11:37:44.972Z,1013.62
2018-11-21T11:38:44.960Z,1013.57
2018-11-21T11:39:44.942Z,1013.59
2018-11-21T11:40:44.895Z,1013.65
2018-11-21T11:41:44.892Z,1013.65
2018-11-21T11:42:44.863Z,1013.65
2018-11-21T11:43:44.859Z,1013.69
2018-11-21T11:44:44.817Z,1013.70
2018-11-21T11:45:44.854Z,1013.66
2018-11-21T11:46:44.770Z,1013.64
2018-11-21T11:47:44.763Z,1013.65
2018-11-21T11:48:44.728Z,1013.67
2018-11-21T11:49:44.718Z,1013.73
2018-11-21T11:50:44.686Z,1013.74
2018-11-21T11:51:44.686Z,1013.75
2018-11-21T11:52:44.645Z,1013.76
2018-11-21T11:53:44.648Z,1013.73
2018-11-21T11:54:44.602Z,1013.78
2018-11-21T11:55:44.585Z,1013.77
2018-11-21T11:56:44.590Z,1013.72
2018-11-21T11:57:44.545Z,1013.71
2018-11-21T11:58:44.523Z,1013.73
2018-11-21T11:59:44.498Z,1013.70
2018-11-21T12:00:44.478Z,1013.71
2018-11-21T12:01:44.478Z,1013.74
2018-11-21T12:02:44.431Z,1013.75
2018-11-21T12:03:44.416Z,1013.75
2018-11-21T12:04:44.394Z,1013.69